createdAt,value
2022-09-15T00:02:29.626Z,2.95
2022-09-15T00:05:32.034Z,5.35
2022-09-15T00:08:34.138Z,3.92
2022-09-15T00:11:37.724Z,5.05
2022-09-15T00:14:39.807Z,4.53
2022-09-15T00:17:43.205Z,5.82
2022-09-15T00:20:46.140Z,9.60
2022-09-15T00:23:49.604Z,6.47
2022-09-15T00:26:51.664Z,5.12
2022-09-15T00:29:54.050Z,6.00
2022-09-15T00:32:56.107Z,4.45
2022-09-15T00:36:08.512Z,4.25
2022-09-15T00:39:10.627Z,5.45
2022-09-15T00:42:18.706Z,4.82
2022-09-15T00:45:21.028Z,4.12
2022-09-15T00:48:23.404Z,3.87
2022-09-15T00:51:38.866Z,5.65
2022-09-15T00:55:05.193Z,5.10
2022-09-15T00:58:11.820Z,5.37
2022-09-15T01:01:16.092Z,6.12
2022-09-15T01:04:18.343Z,5.57
2022-09-15T01:07:28.690Z,7.68
2022-09-15T01:10:37.946Z,5.32
2022-09-15T01:13:40.351Z,5.10
2022-09-15T01:16:48.388Z,4.45
2022-09-15T01:20:13.775Z,5.18
2022-09-15T01:23:38.038Z,5.18
2022-09-15T01:26:46.510Z,5.47
2022-09-15T01:30:02.248Z,6.30
2022-09-15T01:33:42.924Z,7.15
2022-09-15T01:36:52.977Z,6.85
2022-09-15T01:39:58.840Z,6.47
2022-09-15T01:43:03.019Z,4.37
2022-09-15T01:46:07.321Z,4.47
2022-09-15T01:49:14.741Z,4.93
2022-09-15T01:52:20.948Z,5.40
2022-09-15T01:55:29.559Z,4.35
2022-09-15T01:58:32.985Z,5.22
2022-09-15T02:01:45.194Z,5.15
2022-09-15T02:04:53.036Z,5.47
2022-09-15T02:08:09.148Z,6.25
2022-09-15T02:11:29.020Z,3.95
2022-09-15T02:14:48.062Z,5.03
2022-09-15T02:17:54.218Z,6.37
2022-09-15T02:21:06.290Z,5.12
2022-09-15T02:24:16.410Z,5.95
2022-09-15T02:27:23.059Z,4.15
2022-09-15T02:30:26.514Z,4.72
2022-09-15T02:33:35.333Z,5.15
2022-09-15T02:36:39.231Z,4.82
2022-09-15T02:39:46.777Z,5.78
2022-09-15T02:42:57.853Z,5.60
2022-09-15T02:46:00.165Z,3.95
2022-09-15T02:49:02.985Z,4.47
2022-09-15T02:52:05.186Z,4.10
2022-09-15T02:55:08.081Z,2.97
2022-09-15T02:58:10.153Z,2.87
2022-09-15T03:01:17.648Z,3.17
2022-09-15T03:04:20.007Z,2.65
2022-09-15T03:07:22.358Z,2.53
2022-09-15T03:10:25.887Z,2.33
2022-09-15T03:13:28.387Z,2.17
2022-09-15T03:16:32.751Z,3.12
2022-09-15T03:19:35.200Z,2.83
2022-09-15T03:22:37.357Z,3.65
2022-09-15T03:25:39.683Z,5.18
2022-09-15T03:28:41.753Z,3.10
2022-09-15T03:31:44.162Z,2.83
2022-09-15T03:34:46.254Z,3.53
2022-09-15T03:37:48.630Z,4.07
2022-09-15T03:41:02.242Z,2.67
2022-09-15T03:44:05.183Z,2.85
2022-09-15T03:47:07.346Z,3.15
2022-09-15T03:50:09.799Z,4.20
2022-09-15T03:53:11.915Z,3.83
2022-09-15T03:56:32.544Z,2.95
2022-09-15T03:59:34.612Z,5.87
2022-09-15T04:02:36.948Z,4.10
2022-09-15T04:05:40.231Z,6.95
2022-09-15T04:08:42.604Z,1.95
2022-09-15T04:11:44.967Z,4.72
2022-09-15T04:14:47.098Z,3.83
2022-09-15T04:17:49.779Z,3.67
2022-09-15T04:20:51.898Z,3.83
2022-09-15T04:23:54.676Z,3.45
2022-09-15T04:26:56.743Z,3.75
2022-09-15T04:29:59.067Z,3.40
2022-09-15T04:33:01.116Z,2.35
2022-09-15T04:36:06.998Z,4.20
2022-09-15T04:39:09.076Z,4.55
2022-09-15T04:42:11.411Z,2.80
2022-09-15T04:45:13.470Z,4.85
2022-09-15T04:48:15.849Z,4.78
2022-09-15T04:51:20.614Z,3.55
2022-09-15T04:54:23.406Z,4.55
2022-09-15T04:57:25.497Z,2.70
2022-09-15T05:00:28.702Z,4.22
2022-09-15T05:03:30.792Z,8.00
2022-09-15T05:06:34.940Z,3.28
2022-09-15T05:09:37.152Z,4.82
2022-09-15T05:12:39.677Z,4.35
2022-09-15T05:15:41.769Z,6.43
2022-09-15T05:18:45.663Z,4.45
2022-09-15T05:21:47.706Z,5.43
2022-09-15T05:24:50.022Z,2.97
2022-09-15T05:27:52.086Z,6.80
2022-09-15T05:30:56.010Z,6.75
2022-09-15T05:34:00.832Z,5.40
2022-09-15T05:37:03.976Z,6.87
2022-09-15T05:40:08.593Z,4.20
2022-09-15T05:43:11.306Z,9.55
2022-09-15T05:46:14.487Z,6.78
2022-09-15T05:49:16.915Z,4.93
2022-09-15T05:52:19.396Z,4.40
2022-09-15T05:55:22.534Z,7.18
2022-09-15T05:58:25.962Z,4.65
2022-09-15T06:01:29.910Z,6.15
2022-09-15T06:04:34.118Z,4.87
2022-09-15T06:07:42.081Z,4.75
2022-09-15T06:10:47.373Z,9.65
2022-09-15T06:13:49.975Z,6.97
2022-09-15T06:16:52.327Z,4.32
2022-09-15T06:19:54.923Z,5.90
2022-09-15T06:22:57.581Z,6.50
2022-09-15T06:26:26.395Z,11.50
2022-09-15T06:29:29.007Z,11.52
2022-09-15T06:32:31.205Z,4.45
2022-09-15T06:35:33.616Z,9.02
2022-09-15T06:38:35.683Z,7.57
2022-09-15T06:42:00.857Z,4.90
2022-09-15T06:45:01.483Z,5.78
2022-09-15T06:48:23.429Z,5.85
2022-09-15T06:51:28.744Z,6.20
2022-09-15T06:54:31.401Z,5.68
2022-09-15T06:57:33.517Z,6.65
2022-09-15T07:00:35.884Z,7.55
2022-09-15T07:03:43.493Z,8.70
2022-09-15T07:06:46.590Z,9.30
2022-09-15T07:09:49.262Z,6.78
2022-09-15T07:12:51.665Z,5.22
2022-09-15T07:15:56.418Z,3.25
2022-09-15T07:19:01.750Z,6.80
2022-09-15T07:22:04.085Z,6.72
2022-09-15T07:25:06.856Z,5.62
2022-09-15T07:28:10.689Z,7.82
2022-09-15T07:31:15.889Z,6.87
2022-09-15T07:34:17.998Z,7.62
2022-09-15T07:37:21.287Z,3.12
2022-09-15T07:40:23.466Z,5.37
2022-09-15T07:43:25.853Z,6.07
2022-09-15T07:46:32.083Z,3.55
2022-09-15T07:49:34.436Z,3.60
2022-09-15T07:52:36.592Z,4.12
2022-09-15T07:55:39.026Z,3.08
2022-09-15T07:58:42.261Z,4.12
2022-09-15T08:01:44.885Z,2.55
2022-09-15T08:04:47.269Z,4.57
2022-09-15T08:07:50.482Z,6.03
2022-09-15T08:10:53.376Z,4.85
2022-09-15T08:13:55.669Z,6.43
2022-09-15T08:17:01.026Z,2.12
2022-09-15T08:20:03.217Z,3.33
2022-09-15T08:23:05.653Z,6.03
2022-09-15T08:26:13.817Z,3.25
2022-09-15T08:29:19.160Z,5.18
2022-09-15T08:32:21.275Z,5.07
2022-09-15T08:35:23.635Z,3.95
2022-09-15T08:38:25.803Z,3.58
2022-09-15T08:41:37.263Z,1.83
2022-09-15T08:45:16.024Z,2.50
2022-09-15T08:48:26.261Z,1.73
2022-09-15T08:51:40.099Z,2.33
2022-09-15T08:54:45.698Z,4.00
2022-09-15T08:57:55.171Z,4.72
2022-09-15T09:01:12.797Z,2.37
2022-09-15T09:04:53.558Z,2.75
2022-09-15T09:08:27.074Z,2.10
2022-09-15T09:11:57.215Z,6.68
2022-09-15T09:15:02.971Z,2.50
2022-09-15T09:18:37.501Z,2.25
2022-09-15T09:21:47.786Z,3.08
2022-09-15T09:27:58.419Z,1.95
2022-09-15T09:31:07.523Z,3.50
2022-09-15T09:34:20.666Z,1.60
2022-09-15T09:37:23.781Z,0.98
2022-09-15T09:40:26.552Z,3.83
2022-09-15T09:43:29.862Z,1.67
2022-09-15T09:46:33.000Z,4.35
2022-09-15T09:49:41.032Z,3.65
2022-09-15T09:52:43.426Z,4.43
2022-09-15T09:55:45.955Z,1.30
2022-09-15T09:58:48.939Z,3.00
2022-09-15T10:02:15.668Z,1.50
2022-09-15T10:05:20.399Z,2.70
2022-09-15T10:08:22.534Z,2.95
2022-09-15T10:11:48.646Z,1.15
2022-09-15T10:14:54.689Z,3.33
2022-09-15T10:17:57.410Z,4.28
2022-09-15T10:21:01.726Z,2.35
2022-09-15T10:24:32.438Z,2.33
2022-09-15T10:27:36.534Z,5.40
2022-09-15T10:30:39.763Z,2.28
2022-09-15T10:33:46.055Z,2.67
2022-09-15T10:36:48.559Z,2.87
2022-09-15T10:39:55.929Z,2.00
2022-09-15T10:43:34.137Z,2.45
2022-09-15T10:46:48.515Z,3.17
2022-09-15T10:50:13.394Z,3.65
2022-09-15T10:53:23.358Z,4.30
2022-09-15T10:56:31.992Z,3.50
2022-09-15T10:59:45.664Z,4.93
2022-09-15T11:02:56.910Z,4.25
2022-09-15T11:06:42.107Z,5.37
2022-09-15T11:09:53.435Z,2.53
2022-09-15T11:13:13.817Z,2.90
2022-09-15T11:16:41.472Z,2.25
2022-09-15T11:20:15.710Z,2.87
2022-09-15T11:23:29.626Z,8.02
2022-09-15T11:26:43.079Z,2.20
2022-09-15T11:30:05.630Z,4.18
2022-09-15T11:33:21.149Z,3.08
2022-09-15T11:36:32.275Z,4.00
2022-09-15T11:40:06.753Z,10.25
2022-09-15T11:43:34.557Z,4.43
2022-09-15T11:46:45.758Z,11.95
2022-09-15T11:49:55.183Z,7.15
2022-09-15T11:53:12.162Z,5.47
2022-09-15T11:56:36.491Z,6.93
2022-09-15T11:59:50.345Z,5.37
2022-09-15T12:03:02.048Z,6.40
2022-09-15T12:06:14.651Z,4.93
2022-09-15T12:09:18.698Z,6.30
2022-09-15T12:12:22.545Z,7.65
2022-09-15T12:15:27.530Z,7.85
2022-09-15T12:18:43.737Z,5.62
2022-09-15T12:21:56.775Z,5.65
2022-09-15T12:25:04.458Z,8.80
2022-09-15T12:28:21.949Z,4.10
2022-09-15T12:31:36.876Z,6.12
2022-09-15T12:34:39.099Z,5.70
2022-09-15T12:37:52.951Z,4.62
2022-09-15T12:40:59.507Z,6.40
2022-09-15T12:44:18.483Z,4.80
2022-09-15T12:47:38.111Z,9.10
2022-09-15T12:50:53.142Z,4.93
2022-09-15T12:54:04.564Z,4.57
2022-09-15T12:57:18.640Z,7.53
2022-09-15T13:00:20.599Z,6.65
2022-09-15T13:03:43.311Z,9.48
2022-09-15T13:07:18.395Z,6.53
2022-09-15T13:10:34.565Z,4.18
2022-09-15T13:13:54.634Z,5.20
2022-09-15T13:20:15.380Z,5.97
2022-09-15T13:23:23.898Z,7.33
2022-09-15T13:26:28.069Z,3.97
2022-09-15T13:29:32.915Z,6.55
2022-09-15T13:32:44.742Z,5.28
2022-09-15T13:36:19.845Z,3.08
2022-09-15T13:39:40.472Z,4.15
2022-09-15T13:43:00.611Z,3.87
2022-09-15T13:46:14.569Z,2.53
2022-09-15T13:49:44.829Z,4.95
2022-09-15T13:53:05.459Z,4.93
2022-09-15T13:56:12.395Z,6.07
2022-09-15T13:59:29.473Z,4.85
2022-09-15T14:02:32.319Z,6.55
2022-09-15T14:05:36.538Z,3.08
2022-09-15T14:08:41.605Z,5.15
2022-09-15T14:11:48.071Z,3.45
2022-09-15T14:14:54.603Z,8.23
2022-09-15T14:17:57.028Z,8.52
2022-09-15T14:21:06.440Z,4.03
2022-09-15T14:24:20.270Z,4.57
2022-09-15T14:27:29.104Z,10.55
2022-09-15T14:30:32.038Z,9.80
2022-09-15T14:33:39.971Z,16.17
2022-09-15T14:36:42.489Z,17.23
2022-09-15T14:40:18.266Z,13.50
2022-09-15T14:43:30.944Z,12.90
2022-09-15T14:46:37.800Z,13.80
2022-09-15T14:49:40.291Z,13.38
2022-09-15T14:52:46.445Z,17.98
2022-09-15T14:56:16.357Z,18.35
2022-09-15T14:59:27.275Z,14.05
2022-09-15T15:03:06.901Z,9.48
2022-09-15T15:06:28.678Z,5.30
2022-09-15T15:09:48.813Z,8.52
2022-09-15T15:12:54.942Z,6.75
2022-09-15T15:15:57.371Z,4.85
2022-09-15T15:18:59.477Z,8.65
2022-09-15T15:22:14.016Z,9.00
2022-09-15T15:25:28.755Z,8.10
2022-09-15T15:28:33.981Z,6.82
2022-09-15T15:31:40.054Z,4.95
2022-09-15T15:34:59.885Z,5.20
2022-09-15T15:38:25.350Z,4.70
2022-09-15T15:41:30.582Z,6.00
2022-09-15T15:44:32.942Z,4.50
2022-09-15T15:47:36.804Z,5.90
2022-09-15T15:50:38.869Z,4.95
2022-09-15T15:53:41.998Z,4.75
2022-09-15T15:56:44.215Z,3.60
2022-09-15T15:59:46.889Z,4.87
2022-09-15T16:02:50.697Z,4.90
2022-09-15T16:05:58.519Z,5.72
2022-09-15T16:09:02.066Z,4.93
2022-09-15T16:12:05.138Z,4.12
2022-09-15T16:15:16.827Z,3.45
2022-09-15T16:18:19.248Z,3.62
2022-09-15T16:21:28.729Z,5.82
2022-09-15T16:24:31.168Z,5.17
2022-09-15T16:27:33.232Z,3.33
2022-09-15T16:30:35.572Z,5.75
2022-09-15T16:33:38.324Z,6.55
2022-09-15T16:36:40.695Z,4.20
2022-09-15T16:39:42.848Z,4.18
2022-09-15T16:42:45.223Z,5.00
2022-09-15T16:45:48.199Z,5.10
2022-09-15T16:48:50.777Z,5.75
2022-09-15T16:51:53.015Z,4.75
2022-09-15T16:54:56.218Z,7.12
2022-09-15T16:57:59.844Z,7.75
2022-09-15T17:01:03.306Z,6.68
2022-09-15T17:04:12.727Z,8.85
2022-09-15T17:07:15.058Z,6.53
2022-09-15T17:10:17.234Z,8.40
2022-09-15T17:13:27.742Z,4.72
2022-09-15T17:16:32.326Z,6.57
2022-09-15T17:19:34.989Z,5.03
2022-09-15T17:22:37.208Z,7.03
2022-09-15T17:25:42.577Z,7.07
2022-09-15T17:28:44.653Z,5.37
2022-09-15T17:31:46.979Z,3.22
2022-09-15T17:34:49.041Z,4.95
2022-09-15T17:37:52.294Z,7.12
2022-09-15T17:40:55.425Z,4.05
2022-09-15T17:43:57.945Z,4.35
2022-09-15T17:47:00.267Z,4.70
2022-09-15T17:50:02.638Z,5.30
2022-09-15T17:53:13.527Z,4.87
2022-09-15T17:56:16.245Z,4.47
2022-09-15T17:59:18.556Z,7.18
2022-09-15T18:02:21.361Z,5.05
2022-09-15T18:05:27.745Z,4.80
2022-09-15T18:08:30.050Z,4.70
2022-09-15T18:11:32.385Z,9.70
2022-09-15T18:14:34.463Z,7.93
2022-09-15T18:17:36.812Z,6.05
2022-09-15T18:20:39.084Z,7.72
2022-09-15T18:23:42.398Z,6.70
2022-09-15T18:26:45.086Z,6.40
2022-09-15T18:29:47.530Z,8.23
2022-09-15T18:32:49.933Z,6.43
2022-09-15T18:35:55.216Z,7.55
2022-09-15T18:38:57.659Z,6.95
2022-09-15T18:42:00.031Z,9.70
2022-09-15T18:45:02.337Z,5.97
2022-09-15T18:48:07.070Z,8.38
2022-09-15T18:51:19.653Z,5.10
2022-09-15T18:54:26.698Z,5.18
2022-09-15T18:57:28.803Z,5.53
2022-09-15T19:00:31.682Z,6.75
2022-09-15T19:03:34.039Z,5.55
2022-09-15T19:06:36.495Z,5.90
2022-09-15T19:09:38.567Z,4.78
2022-09-15T19:12:40.985Z,5.97
2022-09-15T19:15:44.119Z,5.82
2022-09-15T19:18:49.997Z,4.00
2022-09-15T19:21:52.135Z,3.72
2022-09-15T19:24:54.917Z,6.25
2022-09-15T19:27:57.057Z,4.18
2022-09-15T19:31:00.629Z,4.37
2022-09-15T19:34:05.561Z,3.30
2022-09-15T19:37:12.244Z,4.15
2022-09-15T19:40:17.447Z,8.27
2022-09-15T19:43:19.824Z,6.00
2022-09-15T19:46:24.227Z,6.25
2022-09-15T19:49:26.928Z,8.18
2022-09-15T19:52:29.054Z,5.97
2022-09-15T19:55:34.169Z,4.32
2022-09-15T19:58:36.299Z,3.92
2022-09-15T20:01:38.673Z,3.25
2022-09-15T20:04:41.134Z,3.72
2022-09-15T20:07:44.778Z,4.35
2022-09-15T20:10:48.240Z,4.05
2022-09-15T20:13:50.367Z,2.62
2022-09-15T20:16:54.194Z,4.80
2022-09-15T20:19:58.436Z,4.20
2022-09-15T20:23:01.183Z,3.08
2022-09-15T20:26:08.804Z,4.80
2022-09-15T20:29:11.792Z,3.37
2022-09-15T20:32:14.065Z,4.57
2022-09-15T20:35:17.149Z,5.43
2022-09-15T20:38:19.641Z,5.65
2022-09-15T20:41:24.586Z,6.03
2022-09-15T20:44:26.679Z,6.25
2022-09-15T20:47:29.040Z,4.15
2022-09-15T20:50:31.554Z,5.45
2022-09-15T20:53:34.832Z,5.25
2022-09-15T20:56:36.985Z,7.20
2022-09-15T20:59:39.423Z,4.95
2022-09-15T21:02:41.571Z,4.22
2022-09-15T21:05:45.462Z,6.22
2022-09-15T21:08:48.490Z,5.28
2022-09-15T21:11:53.602Z,7.20
2022-09-15T21:14:56.294Z,9.52
2022-09-15T21:17:58.752Z,10.48
2022-09-15T21:21:03.569Z,7.62
2022-09-15T21:24:07.778Z,9.23
2022-09-15T21:27:29.612Z,8.45
2022-09-15T21:30:31.991Z,7.78
2022-09-15T21:33:35.188Z,6.47
2022-09-15T21:36:37.580Z,8.52
2022-09-15T21:39:39.689Z,6.18
2022-09-15T21:42:42.108Z,5.47
2022-09-15T21:45:44.255Z,7.82
2022-09-15T21:48:48.018Z,9.80
2022-09-15T21:51:50.263Z,12.30
2022-09-15T21:54:52.720Z,11.50
2022-09-15T21:57:55.138Z,9.48
2022-09-15T22:00:57.548Z,11.00
2022-09-15T22:04:06.013Z,6.28
2022-09-15T22:07:08.617Z,9.50
2022-09-15T22:10:11.007Z,8.80
2022-09-15T22:13:13.149Z,9.05
2022-09-15T22:16:21.006Z,7.12
2022-09-15T22:19:23.216Z,8.50
2022-09-15T22:22:25.732Z,11.82
2022-09-15T22:25:27.830Z,9.55
2022-09-15T22:28:31.211Z,10.27
2022-09-15T22:31:34.292Z,9.45
2022-09-15T22:34:36.741Z,8.13
2022-09-15T22:37:38.861Z,10.60
2022-09-15T22:40:41.312Z,8.43
2022-09-15T22:43:45.690Z,8.40
2022-09-15T22:46:49.679Z,7.50
2022-09-15T22:49:51.856Z,8.45
2022-09-15T22:52:55.617Z,7.60
2022-09-15T22:56:10.564Z,7.93
2022-09-15T22:59:13.470Z,10.60
2022-09-15T23:02:15.698Z,7.30
2022-09-15T23:05:18.099Z,6.65
2022-09-15T23:08:20.195Z,9.00
2022-09-15T23:11:23.443Z,5.75
2022-09-15T23:14:25.698Z,5.57
2022-09-15T23:17:28.069Z,8.68
2022-09-15T23:20:30.173Z,4.72
2022-09-15T23:23:33.251Z,6.50
2022-09-15T23:26:35.448Z,7.75
2022-09-15T23:29:39.081Z,4.72
2022-09-15T23:32:41.216Z,8.23
2022-09-15T23:35:43.676Z,7.30
2022-09-15T23:38:47.036Z,7.93
2022-09-15T23:41:49.606Z,5.12
2022-09-15T23:44:51.682Z,5.90
2022-09-15T23:47:54.114Z,3.58
2022-09-15T23:50:56.206Z,5.05
2022-09-15T23:53:58.811Z,4.43
2022-09-15T23:57:00.911Z,3.72
